Time;durP1;ratioP1;P1;durP2;ratioP2;P2;SDS_P1;SDS_P2;PMS_P1;PMS_P2;Temp;Humidity;BMP_temperature;BMP_pressure;BME280_temperature;BME280_humidity;BME280_pressure;Samples;Min_cycle;Max_cycle;Signal;HPM_P1;HPM_P2
2023/10/11 00:00:44;;;;;;;12.53;3.10;;;12.90;99.90;;;;;;5010142;28;20179;-62
2023/10/11 00:03:35;;;;;;;9.80;2.90;;;12.90;99.90;;;;;;5010777;28;20466;-62
2023/10/11 00:06:04;;;;;;;15.60;3.63;;;13.10;99.90;;;;;;5006705;28;20429;-62
2023/10/11 00:08:39;;;;;;;6.40;2.27;;;13.20;99.90;;;;;;5010975;28;20501;-62
2023/10/11 00:11:07;;;;;;;8.33;2.67;;;13.00;99.90;;;;;;5009167;28;20429;-62
2023/10/11 00:13:35;;;;;;;10.83;3.57;;;13.10;99.90;;;;;;5011342;28;21163;-62
2023/10/11 00:16:10;;;;;;;7.17;3.10;;;13.00;99.90;;;;;;5007721;28;20422;-62
2023/10/11 00:18:42;;;;;;;12.57;2.90;;;13.30;99.90;;;;;;5010413;28;20448;-62
2023/10/11 00:21:15;;;;;;;6.93;2.97;;;13.40;99.90;;;;;;5008031;28;20456;-62
2023/10/11 00:23:44;;;;;;;12.83;4.03;;;13.40;99.90;;;;;;5010932;28;20410;-62
2023/10/11 00:26:10;;;;;;;14.30;3.93;;;13.30;99.90;;;;;;5003541;28;20505;-62
2023/10/11 00:28:37;;;;;;;6.30;3.00;;;13.30;99.90;;;;;;5010698;28;20919;-62
2023/10/11 00:31:06;;;;;;;7.63;3.83;;;13.40;99.90;;;;;;5003805;28;20519;-62
2023/10/11 00:33:33;;;;;;;15.53;3.90;;;13.40;99.90;;;;;;5010740;28;20429;-62
2023/10/11 00:36:01;;;;;;;12.53;3.57;;;13.50;99.90;;;;;;5002355;28;20802;-62
2023/10/11 00:38:27;;;;;;;8.40;3.60;;;13.50;99.90;;;;;;5010648;28;20942;-62
2023/10/11 00:41:06;;;;;;;12.63;3.07;;;13.50;99.90;;;;;;5003509;28;20422;-62
2023/10/11 00:43:36;;;;;;;7.53;2.83;;;13.50;99.90;;;;;;5005582;28;20471;-62
2023/10/11 00:46:09;;;;;;;10.87;3.30;;;13.50;99.90;;;;;;5002962;28;20418;-62
2023/10/11 00:48:54;;;;;;;15.70;3.20;;;13.50;99.90;;;;;;5010535;28;21049;-62
2023/10/11 00:51:32;;;;;;;12.97;2.50;;;13.50;99.90;;;;;;5009211;28;20422;-62
2023/10/11 00:54:00;;;;;;;18.53;4.00;;;13.70;99.90;;;;;;5009199;28;20468;-62
2023/10/11 00:56:34;;;;;;;8.90;2.77;;;13.60;99.90;;;;;;5006480;28;20946;-62
2023/10/11 00:59:00;;;;;;;8.67;3.37;;;13.70;99.90;;;;;;5008761;28;20770;-62
2023/10/11 01:01:26;;;;;;;5.77;2.33;;;13.70;99.90;;;;;;5007022;28;20915;-62
2023/10/11 01:03:53;;;;;;;5.63;2.60;;;13.60;99.90;;;;;;5009402;28;20428;-62
2023/10/11 01:06:19;;;;;;;5.37;2.90;;;13.60;99.90;;;;;;5009172;28;20414;-62
2023/10/11 01:08:48;;;;;;;16.57;3.43;;;13.50;99.90;;;;;;5009373;28;20513;-62
2023/10/11 01:11:14;;;;;;;4.23;2.17;;;13.40;99.90;;;;;;5009602;28;20417;-62
2023/10/11 01:13:52;;;;;;;8.77;3.07;;;13.50;99.90;;;;;;5010413;28;20433;-62
2023/10/11 01:16:28;;;;;;;7.83;2.87;;;13.50;99.90;;;;;;5007705;28;20801;-62
2023/10/11 01:18:54;;;;;;;6.47;2.90;;;13.50;99.90;;;;;;5008726;28;20511;-62
2023/10/11 01:21:20;;;;;;;10.70;3.07;;;13.40;99.90;;;;;;5003846;28;20469;-62
2023/10/11 01:23:46;;;;;;;15.73;2.40;;;13.40;99.90;;;;;;5009619;28;20226;-62
2023/10/11 01:26:12;;;;;;;8.03;3.10;;;13.40;99.90;;;;;;5003151;28;20596;-62
2023/10/11 01:28:42;;;;;;;15.53;3.40;;;13.40;99.90;;;;;;5009986;28;20449;-62
2023/10/11 01:31:09;;;;;;;12.13;3.57;;;13.40;99.90;;;;;;5006140;28;20191;-62
2023/10/11 01:33:40;;;;;;;8.80;3.53;;;13.50;99.90;;;;;;5009711;28;20422;-62
2023/10/11 01:36:07;;;;;;;6.00;3.03;;;13.40;99.90;;;;;;5006056;28;20914;-62
2023/10/11 01:38:46;;;;;;;16.60;2.80;;;13.40;99.90;;;;;;5013614;28;20861;-62
2023/10/11 01:41:20;;;;;;;5.50;2.70;;;13.30;99.90;;;;;;5007563;28;20664;-62
2023/10/11 01:43:46;;;;;;;5.90;3.23;;;13.40;99.90;;;;;;5013319;28;20417;-62
2023/10/11 01:46:16;;;;;;;13.13;3.63;;;13.30;99.90;;;;;;5007261;28;20422;-62
2023/10/11 01:48:44;;;;;;;10.30;3.77;;;13.30;99.90;;;;;;5013113;28;20446;-62
2023/10/11 01:51:09;;;;;;;11.30;3.30;;;13.30;99.90;;;;;;5008255;28;20429;-62
2023/10/11 01:53:35;;;;;;;8.60;2.50;;;13.20;99.90;;;;;;5013429;28;20413;-62
2023/10/11 01:56:03;;;;;;;14.63;3.50;;;13.30;99.90;;;;;;5007877;28;20241;-62
2023/10/11 01:58:28;;;;;;;5.13;2.00;;;13.10;99.90;;;;;;5013374;28;20422;-62
2023/10/11 02:00:55;;;;;;;11.90;3.20;;;13.30;99.90;;;;;;5009362;28;20464;-62
2023/10/11 02:03:24;;;;;;;6.87;3.73;;;13.30;99.90;;;;;;5013301;28;20237;-62
2023/10/11 02:05:50;;;;;;;10.10;3.30;;;13.30;99.90;;;;;;5010427;28;20472;-62
2023/10/11 02:08:17;;;;;;;11.23;2.93;;;13.30;99.90;;;;;;5013344;28;20417;-62
2023/10/11 02:10:44;;;;;;;9.20;2.87;;;13.40;99.90;;;;;;5012188;28;20433;-62
2023/10/11 02:13:13;;;;;;;14.80;4.00;;;13.50;99.90;;;;;;5013443;28;20426;-62
2023/10/11 02:15:40;;;;;;;11.60;3.77;;;13.50;99.90;;;;;;5010299;28;20433;-62
2023/10/11 02:18:10;;;;;;;7.93;2.53;;;13.50;99.90;;;;;;5012514;28;20466;-62
2023/10/11 02:20:44;;;;;;;4.63;2.73;;;13.40;99.90;;;;;;5009942;28;20516;-62
2023/10/11 02:23:11;;;;;;;8.47;3.57;;;13.40;99.90;;;;;;5013118;28;20957;-62
2023/10/11 02:25:41;;;;;;;35.83;4.00;;;13.50;99.90;;;;;;5006013;28;20937;-62
2023/10/11 02:28:09;;;;;;;9.37;2.50;;;13.40;99.90;;;;;;5012913;28;20890;-62
2023/10/11 02:30:38;;;;;;;14.83;2.90;;;13.50;99.90;;;;;;5005579;28;20461;-62
2023/10/11 02:33:07;;;;;;;12.53;2.83;;;13.50;99.90;;;;;;5012685;28;20422;-62
2023/10/11 02:35:49;;;;;;;16.03;3.60;;;13.50;99.90;;;;;;5005471;28;20425;-62
2023/10/11 02:38:21;;;;;;;6.13;2.63;;;13.50;99.90;;;;;;5012587;28;20470;-62
2023/10/11 02:40:55;;;;;;;5.37;2.90;;;13.60;99.90;;;;;;5006119;28;20433;-62
2023/10/11 02:43:25;;;;;;;10.30;3.37;;;13.60;99.90;;;;;;5007305;28;20425;-62
2023/10/11 02:45:51;;;;;;;17.40;4.03;;;13.70;99.90;;;;;;5005077;28;20422;-62
2023/10/11 02:48:19;;;;;;;10.10;2.50;;;13.80;99.90;;;;;;5012002;28;20505;-62
2023/10/11 02:50:49;;;;;;;9.70;2.53;;;13.80;99.90;;;;;;5005952;28;20429;-62
2023/10/11 02:53:21;;;;;;;17.17;2.70;;;13.70;99.90;;;;;;5012007;28;20410;-62
2023/10/11 02:56:04;;;;;;;5.90;2.33;;;13.70;99.90;;;;;;5006865;28;20414;-62
2023/10/11 02:58:29;;;;;;;7.20;2.63;;;13.70;99.90;;;;;;5012489;28;20421;-62
2023/10/11 03:00:59;;;;;;;12.87;2.80;;;13.60;99.90;;;;;;5010759;28;20414;-62
2023/10/11 03:03:26;;;;;;;11.33;3.43;;;13.70;99.90;;;;;;5012273;28;20206;-62
2023/10/11 03:05:53;;;;;;;13.10;3.37;;;13.60;99.90;;;;;;5008785;28;20468;-62
2023/10/11 03:08:19;;;;;;;29.33;3.63;;;13.60;99.90;;;;;;5011962;28;20425;-62
2023/10/11 03:10:53;;;;;;;5.67;2.70;;;13.60;99.90;;;;;;5010784;28;20418;-62
2023/10/11 03:13:26;;;;;;;12.33;5.27;;;13.50;99.90;;;;;;5012150;28;20403;-62
2023/10/11 03:15:55;;;;;;;6.13;3.10;;;13.60;99.90;;;;;;5008950;28;20422;-62
2023/10/11 03:18:39;;;;;;;5.17;2.20;;;13.50;99.90;;;;;;5003809;28;20450;-62
2023/10/11 03:21:17;;;;;;;10.40;2.60;;;13.60;99.90;;;;;;5008732;28;20528;-62
2023/10/11 03:23:44;;;;;;;10.87;2.63;;;13.50;99.90;;;;;;5012020;28;20463;-62
2023/10/11 03:26:16;;;;;;;18.70;2.57;;;13.50;99.90;;;;;;5004556;28;20425;-62
2023/10/11 03:28:44;;;;;;;16.30;3.07;;;13.50;99.90;;;;;;5011863;28;20418;-62
2023/10/11 03:31:12;;;;;;;5.10;2.57;;;13.50;99.90;;;;;;5010128;28;20418;-62
2023/10/11 03:33:41;;;;;;;15.40;4.00;;;13.50;99.90;;;;;;5012093;28;20426;-62
2023/10/11 03:36:18;;;;;;;11.33;3.10;;;13.50;99.90;;;;;;5004508;28;20425;-62
2023/10/11 03:38:54;;;;;;;7.43;2.50;;;13.40;99.90;;;;;;5011563;28;20441;-62
2023/10/11 03:41:29;;;;;;;8.40;3.77;;;13.40;99.90;;;;;;5005676;28;20441;-62
2023/10/11 03:44:01;;;;;;;12.97;4.13;;;13.30;99.90;;;;;;5010489;28;20794;-62
2023/10/11 03:46:30;;;;;;;7.23;2.57;;;13.20;99.90;;;;;;5008435;28;20446;-62
2023/10/11 03:49:14;;;;;;;8.23;3.10;;;13.20;99.90;;;;;;5009826;28;20503;-62
2023/10/11 03:51:43;;;;;;;8.23;2.63;;;13.20;99.90;;;;;;5007282;28;20949;-62
2023/10/11 03:54:24;;;;;;;9.73;3.03;;;13.30;99.90;;;;;;5010188;28;20433;-62
2023/10/11 03:56:53;;;;;;;10.00;3.20;;;13.40;99.90;;;;;;5008976;28;20464;-62
2023/10/11 03:59:26;;;;;;;10.30;2.80;;;13.50;99.90;;;;;;5008268;28;20561;-62
2023/10/11 04:01:58;;;;;;;12.70;3.00;;;13.60;99.90;;;;;;5010919;28;20418;-62
2023/10/11 04:04:24;;;;;;;5.57;2.50;;;13.60;99.90;;;;;;5001961;28;20465;-62
2023/10/11 04:07:04;;;;;;;17.33;2.60;;;13.60;99.90;;;;;;5010826;28;20422;-62
2023/10/11 04:09:34;;;;;;;7.93;3.27;;;13.60;99.90;;;;;;5005415;28;20270;-62
2023/10/11 04:12:00;;;;;;;9.53;2.33;;;13.50;99.90;;;;;;5010866;28;20430;-62
2023/10/11 04:14:45;;;;;;;10.67;2.87;;;13.60;99.90;;;;;;5009780;28;20970;-62
2023/10/11 04:17:14;;;;;;;11.63;3.30;;;13.60;99.90;;;;;;5009452;28;20560;-62
2023/10/11 04:19:41;;;;;;;8.03;2.40;;;13.60;99.90;;;;;;5009549;28;20437;-62
2023/10/11 04:22:16;;;;;;;10.77;3.60;;;13.60;99.90;;;;;;5009011;28;20426;-62
2023/10/11 04:24:43;;;;;;;9.30;2.83;;;13.60;99.90;;;;;;5005588;28;20414;-62
2023/10/11 04:29:50;;;;;;;10.40;2.80;;;13.60;99.90;;;;;;5005499;28;20434;-62
2023/10/11 04:32:41;;;;;;;18.27;3.40;;;13.50;99.90;;;;;;5009934;28;20413;-62
2023/10/11 04:38:04;;;;;;;10.23;3.27;;;13.50;99.90;;;;;;5009704;28;20474;-62
2023/10/11 04:43:04;;;;;;;6.53;2.43;;;13.50;99.90;;;;;;5010668;28;20430;-62
2023/10/11 04:45:46;;;;;;;13.83;3.60;;;13.40;99.90;;;;;;5003078;28;20770;-62
2023/10/11 04:48:18;;;;;;;4.00;2.37;;;13.40;99.90;;;;;;5010025;28;20430;-62
2023/10/11 04:50:49;;;;;;;14.63;3.23;;;13.40;99.90;;;;;;5000462;28;20426;-62
2023/10/11 04:53:18;;;;;;;12.33;2.90;;;13.20;99.90;;;;;;5010556;28;20899;-62
2023/10/11 04:56:01;;;;;;;9.70;3.00;;;13.30;99.90;;;;;;5005324;28;20422;-62
2023/10/11 05:01:12;;;;;;;19.20;3.70;;;13.30;99.90;;;;;;5007099;28;20440;-62
2023/10/11 05:03:42;;;;;;;5.37;2.77;;;13.30;99.90;;;;;;5010002;28;20414;-62
2023/10/11 05:06:30;;;;;;;6.90;3.33;;;13.20;99.90;;;;;;5008660;28;20414;-61
2023/10/11 05:09:05;;;;;;;8.00;2.87;;;13.10;99.90;;;;;;5009003;28;20410;-61
2023/10/11 05:11:42;;;;;;;9.00;2.60;;;13.00;99.90;;;;;;5009861;28;20429;-61
2023/10/11 05:14:28;;;;;;;13.80;3.63;;;12.90;99.90;;;;;;5008614;28;20906;-61
2023/10/11 05:20:05;;;;;;;6.37;3.10;;;12.70;99.90;;;;;;4994853;28;20421;-61
2023/10/11 05:22:49;;;;;;;14.87;3.70;;;12.60;99.90;;;;;;5008281;28;20468;-61
2023/10/11 05:27:51;;;;;;;4.50;2.07;;;12.60;99.90;;;;;;5010277;28;20501;-61
2023/10/11 05:30:28;;;;;;;6.00;2.23;;;12.60;99.90;;;;;;5002301;28;20838;-61
2023/10/11 05:51:39;;;;;;;8.80;3.37;;;13.10;99.90;;;;;;5004637;28;20401;-62
2023/10/11 05:54:07;;;;;;;7.40;2.37;;;13.20;99.90;;;;;;5006588;28;20453;-61
2023/10/11 05:56:34;;;;;;;8.60;3.03;;;13.20;99.90;;;;;;5005427;28;20473;-62
2023/10/11 05:59:04;;;;;;;8.80;2.60;;;13.40;99.90;;;;;;5006765;28;20468;-61
2023/10/11 06:01:30;;;;;;;11.13;2.90;;;13.30;99.90;;;;;;5007206;28;20528;-62
2023/10/11 06:03:57;;;;;;;5.60;2.60;;;13.30;99.90;;;;;;5008433;28;20418;-62
2023/10/11 06:06:45;;;;;;;8.80;2.37;;;13.40;99.90;;;;;;5007365;28;20508;-62
2023/10/11 06:09:17;;;;;;;10.23;3.60;;;13.30;99.90;;;;;;5009316;28;20423;-62
2023/10/11 06:11:49;;;;;;;6.40;2.97;;;13.40;99.90;;;;;;5008592;28;20406;-62
2023/10/11 06:14:18;;;;;;;14.77;2.80;;;13.40;99.90;;;;;;5007850;28;20435;-62
2023/10/11 06:16:57;;;;;;;7.80;2.30;;;13.50;99.90;;;;;;5007530;28;20482;-62
2023/10/11 06:19:26;;;;;;;12.93;2.93;;;13.50;99.90;;;;;;5004609;28;20476;-62
2023/10/11 06:21:56;;;;;;;8.50;3.17;;;13.50;99.90;;;;;;5010876;28;20418;-61
2023/10/11 06:24:33;;;;;;;3.93;2.30;;;13.50;99.90;;;;;;5009166;28;20422;-62
2023/10/11 06:28:09;;;;;;;13.17;3.60;;;13.50;99.90;;;;;;5010070;28;20429;-62
2023/10/11 06:29:46;;;;;;;10.70;2.77;;;13.60;99.90;;;;;;5006675;28;20438;-62
2023/10/11 06:32:12;;;;;;;4.20;2.13;;;13.60;99.90;;;;;;5009333;28;20937;-62
2023/10/11 06:34:45;;;;;;;5.70;2.20;;;13.70;99.60;;;;;;5001976;28;20514;-62
2023/10/11 06:37:14;;;;;;;15.80;3.27;;;13.70;99.80;;;;;;5011062;28;20984;-62
2023/10/11 06:42:21;;;;;;;8.20;2.80;;;13.90;99.60;;;;;;5011235;28;20422;-62
2023/10/11 06:44:57;;;;;;;18.40;3.70;;;13.70;99.90;;;;;;5010465;28;20430;-62
2023/10/11 06:47:25;;;;;;;8.43;3.03;;;13.80;99.80;;;;;;5004895;28;20492;-62
2023/10/11 06:49:55;;;;;;;12.23;4.07;;;13.80;99.90;;;;;;5006032;28;20438;-62
2023/10/11 06:52:25;;;;;;;6.87;2.47;;;13.80;99.90;;;;;;5012504;28;20437;-62
2023/10/11 06:57:39;;;;;;;10.50;2.67;;;14.20;98.30;;;;;;5006859;28;20492;-62
2023/10/11 07:00:20;;;;;;;7.97;2.77;;;14.40;98.20;;;;;;5007685;28;20513;-62
2023/10/11 07:02:52;;;;;;;5.63;2.33;;;14.60;97.40;;;;;;5012303;28;20454;-62
2023/10/11 07:05:20;;;;;;;6.77;2.63;;;14.90;97.10;;;;;;5010687;28;20452;-62
2023/10/11 07:07:50;;;;;;;6.97;2.30;;;14.90;97.30;;;;;;5012433;28;20418;-62
2023/10/11 07:10:27;;;;;;;10.83;2.43;;;14.90;97.60;;;;;;5011446;28;20417;-62
2023/10/11 07:13:03;;;;;;;22.73;2.80;;;15.00;97.30;;;;;;5012460;28;20833;-62
2023/10/11 07:15:37;;;;;;;9.90;2.17;;;15.10;97.50;;;;;;5003850;28;20516;-62
2023/10/11 07:18:08;;;;;;;23.03;2.30;;;15.20;97.80;;;;;;5009793;28;20469;-62
2023/10/11 07:20:49;;;;;;;4.30;1.70;;;15.30;97.50;;;;;;5008972;28;20964;-62
2023/10/11 07:23:19;;;;;;;13.37;3.17;;;15.40;97.50;;;;;;5011518;28;20418;-62
2023/10/11 07:25:49;;;;;;;6.20;1.97;;;15.60;97.10;;;;;;5005288;28;20425;-62
2023/10/11 07:28:35;;;;;;;9.70;2.30;;;15.90;97.00;;;;;;5011299;28;20414;-62
2023/10/11 07:31:03;;;;;;;8.23;2.27;;;16.10;96.50;;;;;;5004075;28;20429;-62
2023/10/11 07:33:29;;;;;;;6.60;3.17;;;16.50;96.10;;;;;;5010967;28;20418;-62
2023/10/11 07:35:55;;;;;;;8.30;1.90;;;16.80;95.80;;;;;;5003392;28;20432;-62
2023/10/11 07:38:21;;;;;;;6.60;2.80;;;17.20;95.30;;;;;;5011891;28;20481;-62
2023/10/11 07:40:52;;;;;;;9.90;2.23;;;17.70;94.40;;;;;;5005739;28;20430;-62
2023/10/11 07:43:18;;;;;;;14.30;2.83;;;18.10;94.20;;;;;;5011217;28;20206;-62
2023/10/11 07:45:50;;;;;;;5.03;2.13;;;18.40;93.90;;;;;;5003415;28;20525;-62
2023/10/11 07:48:18;;;;;;;10.13;2.80;;;18.60;93.40;;;;;;5010088;28;20175;-62
2023/10/11 07:50:46;;;;;;;8.80;2.40;;;19.20;92.90;;;;;;5004765;28;20482;-62
2023/10/11 07:53:13;;;;;;;7.63;3.07;;;19.50;91.90;;;;;;5011628;28;20426;-62
2023/10/11 07:55:45;;;;;;;10.33;2.63;;;19.90;91.20;;;;;;5006097;28;20519;-62
2023/10/11 07:58:11;;;;;;;11.57;3.07;;;19.70;91.50;;;;;;5011206;28;20480;-62
2023/10/11 08:00:41;;;;;;;10.23;2.70;;;19.90;91.50;;;;;;5007622;28;20434;-62
2023/10/11 08:03:11;;;;;;;7.00;2.97;;;19.90;91.80;;;;;;5010992;28;21053;-62
2023/10/11 08:05:45;;;;;;;10.33;3.43;;;20.00;91.00;;;;;;5007900;28;20418;-62
2023/10/11 08:08:13;;;;;;;7.37;2.27;;;20.00;90.60;;;;;;5011139;28;20422;-62
2023/10/11 08:10:44;;;;;;;7.90;2.30;;;20.20;90.80;;;;;;5010383;28;20438;-62
2023/10/11 08:13:23;;;;;;;9.60;2.67;;;20.40;90.40;;;;;;5011136;28;20473;-62
2023/10/11 08:15:57;;;;;;;8.57;2.83;;;20.60;90.30;;;;;;5007208;28;20928;-63
2023/10/11 08:18:23;;;;;;;8.97;3.63;;;20.90;90.20;;;;;;5002636;28;20888;-62
2023/10/11 08:20:50;;;;;;;15.77;3.00;;;21.00;89.00;;;;;;5007535;28;20518;-62
2023/10/11 08:23:28;;;;;;;11.27;3.67;;;21.20;89.90;;;;;;5011364;28;20449;-63
2023/10/11 08:25:57;;;;;;;6.13;2.30;;;21.30;89.00;;;;;;5007565;28;20536;-62
2023/10/11 08:28:29;;;;;;;5.13;2.20;;;21.70;87.80;;;;;;5003198;28;20460;-63
2023/10/11 08:30:58;;;;;;;10.23;2.77;;;22.00;86.90;;;;;;5008373;28;20429;-63
2023/10/11 08:33:25;;;;;;;9.10;3.03;;;22.10;86.50;;;;;;5010844;28;20434;-63
2023/10/11 08:35:55;;;;;;;8.33;3.33;;;22.20;86.20;;;;;;5007079;28;20452;-63
2023/10/11 08:38:24;;;;;;;7.37;2.27;;;22.40;86.10;;;;;;5010671;28;20472;-63
2023/10/11 08:40:51;;;;;;;7.77;2.47;;;22.70;84.50;;;;;;5008910;28;20426;-63
2023/10/11 08:43:17;;;;;;;13.47;4.33;;;22.70;84.30;;;;;;5011195;28;20417;-63
2023/10/11 08:45:48;;;;;;;11.30;2.43;;;22.70;83.60;;;;;;5007513;28;20425;-63
2023/10/11 08:48:15;;;;;;;4.93;2.17;;;22.70;84.00;;;;;;5010194;28;20651;-63
2023/10/11 08:50:51;;;;;;;6.37;2.33;;;22.40;84.70;;;;;;5009096;28;21005;-63
2023/10/11 08:53:21;;;;;;;14.40;3.33;;;22.70;83.20;;;;;;5009961;28;20863;-63
2023/10/11 08:55:56;;;;;;;8.30;2.77;;;22.60;84.10;;;;;;5007045;28;20429;-63
2023/10/11 08:58:27;;;;;;;12.23;2.90;;;22.40;84.60;;;;;;5010159;28;20456;-62
2023/10/11 09:00:55;;;;;;;13.20;2.97;;;21.90;85.10;;;;;;5008411;28;20429;-62
2023/10/11 09:03:26;;;;;;;7.63;2.70;;;21.70;86.30;;;;;;5009700;28;20425;-62
2023/10/11 09:05:58;;;;;;;14.13;2.90;;;21.50;87.40;;;;;;5008331;28;20429;-62
2023/10/11 09:08:32;;;;;;;10.17;3.13;;;21.20;86.10;;;;;;5010071;28;20445;-62
2023/10/11 09:11:11;;;;;;;11.80;3.20;;;20.90;86.20;;;;;;5009881;28;20433;-61
2023/10/11 09:13:37;;;;;;;17.27;2.90;;;20.90;87.20;;;;;;5010497;28;20929;-62
2023/10/11 09:16:11;;;;;;;9.00;2.20;;;20.70;87.00;;;;;;5006292;28;20429;-61
2023/10/11 09:18:37;;;;;;;6.10;2.07;;;20.60;87.90;;;;;;5009663;28;20471;-61
2023/10/11 09:21:18;;;;;;;10.40;2.80;;;20.70;87.90;;;;;;5006525;28;20838;-61
2023/10/11 09:23:48;;;;;;;6.73;2.83;;;20.60;88.30;;;;;;5010087;28;20210;-61
2023/10/11 09:26:34;;;;;;;4.00;1.83;;;20.60;87.90;;;;;;5008077;28;20754;-61
2023/10/11 09:29:03;;;;;;;7.33;2.60;;;20.50;88.90;;;;;;5008421;28;20418;-62
2023/10/11 09:31:31;;;;;;;10.60;2.93;;;20.50;90.10;;;;;;5008069;28;20512;-61
2023/10/11 09:34:03;;;;;;;10.03;2.80;;;20.60;89.50;;;;;;5008489;28;20418;-61
2023/10/11 09:36:30;;;;;;;18.70;3.70;;;20.60;89.40;;;;;;5003649;28;20964;-61
2023/10/11 09:38:57;;;;;;;14.20;2.60;;;20.70;88.50;;;;;;5009499;28;20422;-61
2023/10/11 09:41:44;;;;;;;14.53;4.20;;;20.80;89.00;;;;;;5003868;28;20422;-61
2023/10/11 09:44:10;;;;;;;21.13;2.30;;;20.90;90.00;;;;;;5008267;28;20462;-61
2023/10/11 09:46:36;;;;;;;11.53;2.83;;;21.10;89.60;;;;;;5007752;28;20430;-61
2023/10/11 09:49:12;;;;;;;8.80;2.50;;;21.20;89.40;;;;;;5005196;28;20441;-61
2023/10/11 09:51:41;;;;;;;17.03;3.07;;;21.30;90.30;;;;;;5004830;28;20484;-61
2023/10/11 09:54:14;;;;;;;4.73;2.47;;;21.30;89.50;;;;;;5008464;28;20804;-62
2023/10/11 09:57:08;;;;;;;12.10;2.40;;;21.50;88.60;;;;;;5009233;28;20498;-62
2023/10/11 09:59:59;;;;;;;11.33;4.03;;;21.60;90.10;;;;;;5005776;28;20444;-61
2023/10/11 10:02:37;;;;;;;7.60;3.10;;;21.90;88.60;;;;;;5005825;28;20428;-61
2023/10/11 10:05:06;;;;;;;4.00;2.00;;;21.80;88.10;;;;;;5011627;28;20432;-61
2023/10/11 10:07:45;;;;;;;9.87;3.30;;;21.90;89.10;;;;;;5013570;28;20421;-61
2023/10/11 10:10:36;;;;;;;10.73;3.00;;;22.20;88.90;;;;;;5012843;28;20900;-61
2023/10/11 10:13:09;;;;;;;11.80;3.13;;;22.20;88.60;;;;;;5013451;28;20455;-63
2023/10/11 10:15:47;;;;;;;6.77;2.67;;;22.30;88.40;;;;;;5009789;28;20909;-63
2023/10/11 10:18:17;;;;;;;9.17;2.80;;;22.50;88.20;;;;;;5011306;28;20511;-63
2023/10/11 10:20:44;;;;;;;11.27;3.03;;;22.80;87.20;;;;;;5009858;28;20441;-63
2023/10/11 10:23:15;;;;;;;16.97;3.20;;;22.90;87.30;;;;;;5013152;28;21281;-61
2023/10/11 10:25:48;;;;;;;16.83;3.27;;;23.00;87.20;;;;;;5009739;28;20456;-61
2023/10/11 10:28:45;;;;;;;6.57;2.90;;;23.10;86.00;;;;;;5013007;28;20421;-63
2023/10/11 10:31:19;;;;;;;10.50;3.20;;;23.20;85.60;;;;;;5003132;28;20507;-64
2023/10/11 10:33:52;;;;;;;19.03;3.30;;;23.20;84.70;;;;;;5012229;28;20443;-63
2023/10/11 10:36:21;;;;;;;16.93;3.07;;;23.40;85.50;;;;;;5010222;28;20429;-63
2023/10/11 10:39:03;;;;;;;11.90;2.17;;;23.50;85.40;;;;;;5012161;28;20970;-63
2023/10/11 10:41:33;;;;;;;7.50;2.57;;;23.60;84.60;;;;;;5005077;28;20997;-64
2023/10/11 10:44:11;;;;;;;9.20;2.47;;;23.70;86.00;;;;;;5011043;28;20422;-61
2023/10/11 10:46:55;;;;;;;9.40;2.63;;;23.80;85.80;;;;;;5010426;28;20425;-61
2023/10/11 10:49:40;;;;;;;7.20;2.30;;;24.00;85.40;;;;;;5010507;28;20425;-61
2023/10/11 10:52:16;;;;;;;11.50;2.80;;;24.00;83.90;;;;;;5013297;28;20778;-61
2023/10/11 10:55:01;;;;;;;5.10;2.17;;;24.20;85.30;;;;;;5010856;28;20439;-61
2023/10/11 10:57:31;;;;;;;6.23;2.60;;;24.30;83.00;;;;;;5004850;28;20449;-61
2023/10/11 10:59:58;;;;;;;16.67;3.30;;;24.30;82.30;;;;;;5011302;28;20962;-61
2023/10/11 11:02:24;;;;;;;4.83;2.30;;;24.40;83.20;;;;;;5005636;28;20770;-61
2023/10/11 11:04:49;;;;;;;20.33;3.43;;;24.60;82.10;;;;;;5010579;28;20926;-61
2023/10/11 11:07:22;;;;;;;10.10;2.70;;;24.80;81.50;;;;;;5011106;28;20205;-61
2023/10/11 11:09:54;;;;;;;8.03;2.47;;;24.90;80.50;;;;;;5012153;28;20513;-61
2023/10/11 11:12:28;;;;;;;11.67;2.57;;;25.00;81.50;;;;;;5012484;28;20437;-61
2023/10/11 11:14:55;;;;;;;4.10;2.33;;;25.10;79.60;;;;;;5009241;28;20516;-62
2023/10/11 11:17:23;;;;;;;10.50;3.00;;;25.40;78.70;;;;;;5011755;28;20522;-62
2023/10/11 11:20:15;;;;;;;4.93;2.43;;;25.40;78.00;;;;;;5010030;28;20421;-62
2023/10/11 11:22:42;;;;;;;5.53;2.50;;;25.30;78.80;;;;;;5009038;28;20413;-62
2023/10/11 11:25:27;;;;;;;12.33;3.20;;;25.50;78.50;;;;;;5008406;28;20458;-62
2023/10/11 11:28:15;;;;;;;12.50;2.40;;;25.60;77.60;;;;;;5012294;28;20453;-61
2023/10/11 11:30:43;;;;;;;4.33;1.90;;;25.50;75.40;;;;;;5005825;28;20417;-62
2023/10/11 11:33:34;;;;;;;6.27;1.40;;;25.40;76.00;;;;;;5011581;28;20425;-62
2023/10/11 11:35:59;;;;;;;9.20;1.87;;;25.40;74.80;;;;;;5007839;28;20449;-62
2023/10/11 11:38:30;;;;;;;7.37;2.10;;;25.60;72.80;;;;;;5011389;28;20541;-62
2023/10/11 11:41:04;;;;;;;9.97;3.13;;;25.60;73.80;;;;;;5009676;28;20637;-61
2023/10/11 11:43:33;;;;;;;5.70;2.30;;;25.50;72.90;;;;;;5006979;28;20406;-61
2023/10/11 11:46:01;;;;;;;6.57;1.90;;;25.80;70.80;;;;;;5007577;28;20449;-61
2023/10/11 11:48:27;;;;;;;6.43;2.33;;;25.90;72.10;;;;;;5011236;28;20429;-62
2023/10/11 11:50:56;;;;;;;6.50;2.47;;;25.90;71.50;;;;;;5008704;28;20448;-61
2023/10/11 11:53:22;;;;;;;11.17;2.80;;;26.10;72.30;;;;;;5011322;28;20659;-61
2023/10/11 11:55:49;;;;;;;17.37;2.77;;;26.00;70.00;;;;;;5009689;28;20435;-62
2023/10/11 11:58:17;;;;;;;3.50;1.93;;;25.80;71.70;;;;;;5009869;28;20203;-62
2023/10/11 12:00:59;;;;;;;11.90;2.50;;;25.90;71.50;;;;;;5010487;28;20425;-62
2023/10/11 12:03:24;;;;;;;11.10;2.80;;;26.00;70.60;;;;;;5011082;28;20940;-62
2023/10/11 12:05:52;;;;;;;9.80;2.03;;;26.00;71.80;;;;;;5009315;28;20469;-62
2023/10/11 12:08:20;;;;;;;4.90;2.37;;;26.10;71.90;;;;;;5010871;28;20523;-62
2023/10/11 12:10:47;;;;;;;7.73;2.53;;;26.10;72.50;;;;;;5008879;28;20232;-62
2023/10/11 12:13:23;;;;;;;8.40;1.90;;;26.20;72.00;;;;;;5011187;28;20206;-62
2023/10/11 12:15:54;;;;;;;6.80;1.90;;;26.40;69.90;;;;;;5007236;28;20184;-62
2023/10/11 12:18:35;;;;;;;15.17;2.10;;;26.30;69.30;;;;;;5009433;28;20215;-63
2023/10/11 12:21:10;;;;;;;7.53;2.47;;;26.30;70.60;;;;;;5007425;28;20767;-62
2023/10/11 12:23:46;;;;;;;8.47;2.80;;;26.50;69.80;;;;;;5011190;28;20433;-62
2023/10/11 12:26:12;;;;;;;5.50;2.27;;;26.60;68.30;;;;;;5006870;28;20481;-62
2023/10/11 12:28:38;;;;;;;8.40;2.27;;;26.60;69.80;;;;;;5003714;28;20182;-62
2023/10/11 12:31:04;;;;;;;5.30;1.70;;;26.50;70.70;;;;;;5007020;28;20584;-62
2023/10/11 12:33:30;;;;;;;4.70;2.00;;;26.40;70.20;;;;;;5010714;28;20690;-62
2023/10/11 12:35:56;;;;;;;5.00;2.10;;;26.60;69.40;;;;;;5006890;28;20179;-62
2023/10/11 12:38:23;;;;;;;5.93;2.30;;;26.60;69.60;;;;;;5010213;28;20252;-62
2023/10/11 12:40:49;;;;;;;8.53;2.27;;;26.30;70.10;;;;;;5008345;28;20237;-62
2023/10/11 12:43:15;;;;;;;7.90;2.80;;;26.40;69.40;;;;;;5009705;28;20561;-62
2023/10/11 12:45:43;;;;;;;16.00;3.33;;;26.40;70.40;;;;;;5007978;28;20566;-63
2023/10/11 12:48:11;;;;;;;8.93;2.23;;;26.40;67.80;;;;;;5010056;28;20198;-62
2023/10/11 12:50:37;;;;;;;4.27;1.80;;;26.40;67.70;;;;;;5008772;28;20852;-62
2023/10/11 12:53:13;;;;;;;3.83;1.77;;;26.20;68.10;;;;;;5009816;28;20421;-62
2023/10/11 12:55:43;;;;;;;7.57;2.83;;;26.10;69.80;;;;;;5008609;28;20965;-62
2023/10/11 12:58:12;;;;;;;9.83;2.50;;;26.30;68.30;;;;;;5009883;28;20534;-62
2023/10/11 13:00:51;;;;;;;6.60;2.47;;;26.20;67.30;;;;;;5009300;28;20185;-61
2023/10/11 13:03:18;;;;;;;4.97;2.20;;;25.90;66.80;;;;;;5008843;28;20453;-61
2023/10/11 13:05:47;;;;;;;6.87;2.03;;;25.80;67.50;;;;;;5008509;28;20426;-61
2023/10/11 13:08:15;;;;;;;12.03;2.60;;;25.80;66.50;;;;;;5009461;28;20425;-62
2023/10/11 13:10:49;;;;;;;6.70;2.57;;;25.80;67.10;;;;;;5010142;28;20433;-61
2023/10/11 13:13:15;;;;;;;6.10;1.90;;;25.80;68.40;;;;;;5010072;28;20418;-61
2023/10/11 13:15:55;;;;;;;9.87;3.20;;;25.80;68.90;;;;;;5006981;28;20440;-61
2023/10/11 13:18:21;;;;;;;7.47;1.83;;;25.80;68.40;;;;;;5010390;28;20472;-61
2023/10/11 13:20:47;;;;;;;6.90;2.60;;;25.90;66.80;;;;;;5007328;28;20436;-61
2023/10/11 13:23:13;;;;;;;17.00;2.83;;;26.00;68.30;;;;;;5010665;28;20421;-61
2023/10/11 13:25:38;;;;;;;4.90;2.40;;;25.90;68.00;;;;;;5007046;28;20182;-61
2023/10/11 13:28:04;;;;;;;4.67;1.70;;;25.80;68.70;;;;;;5010611;28;20900;-62
2023/10/11 13:30:36;;;;;;;8.03;2.70;;;25.80;69.20;;;;;;5008921;28;20268;-62
2023/10/11 13:33:05;;;;;;;9.50;2.17;;;25.80;69.30;;;;;;5014679;28;20977;-61
2023/10/11 13:35:33;;;;;;;5.77;2.17;;;25.90;68.00;;;;;;5011380;28;21198;-62
2023/10/11 13:38:04;;;;;;;6.20;1.93;;;25.90;68.00;;;;;;5039282;22;20518;-62
2023/10/11 13:40:32;;;;;;;12.40;2.53;;;25.80;68.20;;;;;;5011535;28;20909;-62
2023/10/11 13:42:57;;;;;;;3.80;2.10;;;25.80;68.40;;;;;;5029202;28;20483;-62
2023/10/11 13:45:23;;;;;;;5.50;1.83;;;25.80;67.50;;;;;;5015961;28;20893;-62